Time;durP1;ratioP1;P1;durP2;ratioP2;P2;SDS_P1;SDS_P2;PMS_P1;PMS_P2;Temp;Humidity;BMP_temperature;BMP_pressure;BME280_temperature;BME280_humidity;BME280_pressure;Samples;Min_cycle;Max_cycle;Signal;HPM_P1;HPM_P2
2023/05/20 00:00:14;;;;;;;4.25;1.35;;;15.70;99.90;;;;;;5051899;28;20073;-86
2023/05/20 00:02:40;;;;;;;2.97;1.73;;;15.70;99.90;;;;;;5035959;28;20131;-86
2023/05/20 00:05:06;;;;;;;4.15;1.90;;;15.70;99.90;;;;;;5035409;28;20478;-86
2023/05/20 00:07:32;;;;;;;3.63;1.45;;;15.70;99.90;;;;;;5052386;28;20029;-86
2023/05/20 00:09:57;;;;;;;5.40;1.75;;;15.70;99.90;;;;;;5035285;28;20039;-85
2023/05/20 00:12:23;;;;;;;4.55;1.63;;;15.70;99.90;;;;;;5035692;28;20040;-85
2023/05/20 00:14:48;;;;;;;3.55;1.45;;;15.70;99.90;;;;;;5052411;28;20039;-85
2023/05/20 00:17:14;;;;;;;3.45;1.23;;;15.70;99.90;;;;;;5051870;28;20035;-85
2023/05/20 00:19:39;;;;;;;3.22;1.40;;;15.70;99.90;;;;;;5035221;28;20060;-86
2023/05/20 00:22:05;;;;;;;1.73;1.38;;;15.60;99.90;;;;;;5051446;28;20033;-85
2023/05/20 00:24:31;;;;;;;3.85;1.40;;;15.60;99.90;;;;;;5035484;28;20045;-85
2023/05/20 00:26:57;;;;;;;2.15;1.48;;;15.60;99.90;;;;;;5034892;28;20025;-85
2023/05/20 00:29:22;;;;;;;2.67;1.30;;;15.60;99.90;;;;;;5035321;28;20485;-86
2023/05/20 00:31:48;;;;;;;2.22;1.30;;;15.60;99.90;;;;;;5052024;28;20072;-85
2023/05/20 00:34:13;;;;;;;2.55;1.30;;;15.60;99.90;;;;;;5035008;28;20025;-85
2023/05/20 00:36:39;;;;;;;5.40;1.80;;;15.50;99.90;;;;;;5053976;28;20048;-89
2023/05/20 00:39:05;;;;;;;5.90;1.48;;;15.50;99.90;;;;;;5072794;28;20046;-89
2023/05/20 00:41:31;;;;;;;4.50;1.63;;;15.50;99.90;;;;;;5072978;28;20074;-89
2023/05/20 00:43:56;;;;;;;2.20;1.65;;;15.50;99.90;;;;;;5089655;28;20538;-87
2023/05/20 00:46:25;;;;;;;4.38;1.60;;;15.50;99.90;;;;;;5072645;28;20032;-89
2023/05/20 00:48:51;;;;;;;3.08;1.30;;;15.50;99.90;;;;;;5072990;28;20025;-89
2023/05/20 00:51:19;;;;;;;3.00;1.48;;;15.50;99.90;;;;;;5072159;28;20024;-85
2023/05/20 00:53:45;;;;;;;2.83;1.58;;;15.40;99.90;;;;;;5073191;28;20032;-85
2023/05/20 00:56:11;;;;;;;2.80;1.50;;;15.40;99.90;;;;;;5073473;28;20021;-85
2023/05/20 00:58:37;;;;;;;2.58;1.52;;;15.40;99.90;;;;;;5073777;28;20052;-85
2023/05/20 01:01:03;;;;;;;2.17;1.55;;;15.40;99.90;;;;;;5072202;28;20401;-84
2023/05/20 01:03:30;;;;;;;4.85;1.60;;;15.40;99.90;;;;;;5056218;28;20121;-85
2023/05/20 01:05:55;;;;;;;4.40;1.45;;;15.30;99.90;;;;;;5073913;28;20027;-84
2023/05/20 01:08:23;;;;;;;2.30;1.60;;;15.30;99.90;;;;;;5073648;28;20021;-86
2023/05/20 01:10:54;;;;;;;5.20;1.80;;;15.40;99.90;;;;;;5072659;28;20037;-86
2023/05/20 01:13:26;;;;;;;3.03;1.65;;;15.30;99.90;;;;;;5072483;28;20055;-86
2023/05/20 01:15:54;;;;;;;2.15;1.20;;;15.40;99.90;;;;;;5073766;28;20070;-86
2023/05/20 01:18:24;;;;;;;4.07;1.65;;;15.40;99.90;;;;;;5072301;28;20032;-88
2023/05/20 01:20:52;;;;;;;3.17;1.45;;;15.40;99.90;;;;;;5074273;28;20035;-87
2023/05/20 01:23:18;;;;;;;2.35;1.50;;;15.40;99.90;;;;;;5074604;28;20178;-87
2023/05/20 01:25:43;;;;;;;2.15;1.42;;;15.40;99.90;;;;;;5073901;28;20488;-87
2023/05/20 01:28:16;;;;;;;3.70;1.42;;;15.40;99.90;;;;;;5074292;28;20028;-86
2023/05/20 01:30:48;;;;;;;2.60;1.70;;;15.40;99.90;;;;;;5074454;28;20025;-88
2023/05/20 01:33:15;;;;;;;2.17;1.70;;;15.40;99.90;;;;;;5075436;28;20078;-87
2023/05/20 01:35:41;;;;;;;5.15;1.88;;;15.40;99.90;;;;;;5074326;28;20068;-87
2023/05/20 01:38:07;;;;;;;2.42;1.50;;;15.30;99.90;;;;;;5074865;28;20128;-86
2023/05/20 01:40:34;;;;;;;2.70;1.80;;;15.30;99.90;;;;;;5074224;28;20478;-85
2023/05/20 01:43:02;;;;;;;5.47;1.90;;;15.30;99.90;;;;;;5074179;28;20111;-84
2023/05/20 01:45:27;;;;;;;7.10;4.55;;;15.30;99.90;;;;;;5075942;28;20058;-84
2023/05/20 01:47:53;;;;;;;6.10;2.72;;;15.20;99.90;;;;;;5075817;28;20021;-87
2023/05/20 01:50:19;;;;;;;3.05;1.60;;;15.30;99.90;;;;;;5076151;28;20025;-88
2023/05/20 01:52:44;;;;;;;4.40;1.58;;;15.20;99.90;;;;;;5092840;28;20492;-88
2023/05/20 01:55:10;;;;;;;2.67;1.63;;;15.30;99.90;;;;;;5083334;28;20064;-88
2023/05/20 01:57:35;;;;;;;3.78;1.85;;;15.30;99.90;;;;;;5084252;28;20020;-88
2023/05/20 02:00:01;;;;;;;2.92;1.88;;;15.30;99.90;;;;;;5081021;28;20027;-87
2023/05/20 02:02:27;;;;;;;5.32;1.92;;;15.30;99.90;;;;;;5076357;28;20179;-89
2023/05/20 02:04:53;;;;;;;5.63;1.70;;;15.30;99.90;;;;;;5076445;28;20032;-88
2023/05/20 02:07:19;;;;;;;3.33;1.67;;;15.30;99.90;;;;;;5077042;28;20024;-89
2023/05/20 02:09:45;;;;;;;2.47;1.50;;;15.20;99.90;;;;;;5077805;28;20082;-89
2023/05/20 02:12:15;;;;;;;4.25;1.92;;;15.30;99.90;;;;;;5075803;28;20100;-89
2023/05/20 02:14:46;;;;;;;2.45;1.52;;;15.20;99.90;;;;;;5092889;28;20031;-89
2023/05/20 02:17:15;;;;;;;3.67;1.65;;;15.20;99.90;;;;;;5075771;28;20036;-89
2023/05/20 02:19:40;;;;;;;4.78;1.90;;;15.20;99.90;;;;;;5076106;28;20036;-88
2023/05/20 02:22:06;;;;;;;2.22;1.50;;;15.10;99.90;;;;;;5075751;28;20029;-88
2023/05/20 02:24:32;;;;;;;3.92;1.73;;;15.10;99.90;;;;;;5077411;28;20043;-89
2023/05/20 02:26:58;;;;;;;2.28;1.50;;;15.10;99.90;;;;;;5075802;28;20025;-89
2023/05/20 02:29:24;;;;;;;3.03;1.77;;;15.10;99.90;;;;;;5076287;28;20461;-89
2023/05/20 02:31:50;;;;;;;2.53;1.60;;;15.00;99.90;;;;;;5075997;28;20074;-89
2023/05/20 02:34:20;;;;;;;5.38;1.85;;;15.00;99.90;;;;;;5091889;28;20028;-84
2023/05/20 02:36:45;;;;;;;2.38;1.90;;;15.10;99.90;;;;;;5076515;28;20031;-83
2023/05/20 02:39:11;;;;;;;5.35;1.80;;;15.00;99.90;;;;;;5075412;28;20435;-84
2023/05/20 02:41:37;;;;;;;3.70;2.00;;;15.00;99.90;;;;;;5075752;28;20082;-85
2023/05/20 02:44:02;;;;;;;3.50;1.42;;;15.00;99.90;;;;;;5075329;28;20112;-88
2023/05/20 02:46:28;;;;;;;4.65;1.83;;;15.00;99.90;;;;;;5075365;28;20025;-87
2023/05/20 02:48:54;;;;;;;4.72;1.63;;;15.00;99.90;;;;;;5075874;28;20048;-86
2023/05/20 02:51:19;;;;;;;5.03;2.08;;;14.90;99.90;;;;;;5075067;28;20063;-86
2023/05/20 02:53:46;;;;;;;2.67;1.80;;;14.90;99.90;;;;;;5075691;28;20498;-85
2023/05/20 02:56:12;;;;;;;3.92;2.00;;;14.90;99.90;;;;;;5074739;28;20025;-85
2023/05/20 02:58:38;;;;;;;8.23;2.05;;;14.80;99.90;;;;;;5075518;28;20082;-86
2023/05/20 03:01:04;;;;;;;4.45;1.90;;;14.70;99.90;;;;;;5074634;28;20052;-85
2023/05/20 03:03:30;;;;;;;2.65;1.60;;;14.80;99.90;;;;;;5075272;28;20029;-89
2023/05/20 03:05:55;;;;;;;3.72;1.60;;;14.70;99.90;;;;;;5074847;28;20028;-90
2023/05/20 03:08:21;;;;;;;2.70;1.83;;;14.70;99.90;;;;;;5074776;28;20027;-89
2023/05/20 03:10:48;;;;;;;1.80;1.48;;;14.70;99.90;;;;;;5074771;28;20032;-90
2023/05/20 03:13:14;;;;;;;3.58;2.08;;;14.70;99.90;;;;;;5074687;28;20036;-86
2023/05/20 03:15:44;;;;;;;2.58;1.50;;;14.60;99.90;;;;;;5074904;28;20036;-86
2023/05/20 03:18:11;;;;;;;2.75;2.03;;;14.50;99.90;;;;;;5074958;28;20223;-86
2023/05/20 03:20:37;;;;;;;4.97;1.83;;;14.50;99.90;;;;;;5075639;28;20028;-88
2023/05/20 03:23:03;;;;;;;4.90;1.80;;;14.50;99.90;;;;;;5091248;28;20115;-87
2023/05/20 03:25:29;;;;;;;4.82;1.80;;;14.50;99.90;;;;;;5074276;28;20048;-88
2023/05/20 03:27:57;;;;;;;3.50;2.00;;;14.50;99.90;;;;;;5075123;28;20354;-88
2023/05/20 03:30:23;;;;;;;4.85;1.85;;;14.50;99.90;;;;;;5074807;28;20028;-88
2023/05/20 03:32:48;;;;;;;3.83;2.00;;;14.50;99.90;;;;;;5075541;28;20097;-88
2023/05/20 03:35:14;;;;;;;3.42;1.85;;;14.40;99.90;;;;;;5074003;28;20037;-88
2023/05/20 03:37:40;;;;;;;5.63;2.00;;;14.40;99.90;;;;;;5074699;28;20029;-88
2023/05/20 03:40:08;;;;;;;4.03;1.80;;;14.30;99.90;;;;;;5073742;28;20021;-88
2023/05/20 03:42:33;;;;;;;3.60;1.80;;;14.30;99.90;;;;;;5075541;28;20036;-87
2023/05/20 03:44:59;;;;;;;4.00;1.70;;;14.20;99.90;;;;;;5075348;28;20020;-88
2023/05/20 03:47:25;;;;;;;5.00;1.80;;;14.20;99.90;;;;;;5073771;28;20473;-88
2023/05/20 03:49:51;;;;;;;5.35;1.67;;;14.20;99.90;;;;;;5074317;28;20020;-88
2023/05/20 03:52:17;;;;;;;3.97;1.80;;;14.20;99.90;;;;;;5074270;28;20031;-88
2023/05/20 03:54:43;;;;;;;4.53;2.13;;;14.10;99.90;;;;;;5075543;28;20483;-88
2023/05/20 03:57:09;;;;;;;2.92;1.80;;;14.10;99.90;;;;;;5073716;28;20025;-87
2023/05/20 03:59:35;;;;;;;2.25;1.63;;;14.10;99.90;;;;;;5074088;28;20035;-88
2023/05/20 04:02:01;;;;;;;4.38;1.98;;;14.10;99.90;;;;;;5075072;28;20053;-88
2023/05/20 04:04:27;;;;;;;2.63;1.80;;;14.10;99.90;;;;;;5073544;28;20112;-85
2023/05/20 04:06:53;;;;;;;4.40;2.10;;;14.10;99.90;;;;;;5073853;28;20056;-86
2023/05/20 04:09:19;;;;;;;2.95;2.05;;;14.10;99.90;;;;;;5073460;28;20029;-86
2023/05/20 04:11:45;;;;;;;5.90;2.10;;;14.10;99.90;;;;;;5073911;28;20028;-87
2023/05/20 04:14:10;;;;;;;4.25;2.00;;;14.10;99.90;;;;;;5073437;28;20032;-89
2023/05/20 04:16:36;;;;;;;4.90;2.03;;;14.00;99.90;;;;;;5074019;28;20077;-90
2023/05/20 04:19:02;;;;;;;5.05;2.50;;;14.00;99.90;;;;;;5073747;28;20119;-90
2023/05/20 04:21:28;;;;;;;6.05;2.50;;;14.00;99.90;;;;;;5072752;28;20032;-90
2023/05/20 04:23:53;;;;;;;3.92;2.20;;;14.00;99.90;;;;;;5090072;28;20039;-90
2023/05/20 04:26:19;;;;;;;3.47;2.20;;;14.00;99.90;;;;;;5073215;28;20028;-89
2023/05/20 04:28:47;;;;;;;6.30;2.80;;;14.00;99.90;;;;;;5090986;28;20085;-89
2023/05/20 04:31:13;;;;;;;6.78;2.08;;;14.00;99.90;;;;;;5072941;28;20066;-86
2023/05/20 04:33:39;;;;;;;3.95;2.33;;;14.00;99.90;;;;;;5073618;28;20058;-86
2023/05/20 04:36:10;;;;;;;4.30;2.40;;;14.00;99.90;;;;;;5074461;28;20035;-86
2023/05/20 04:38:37;;;;;;;3.72;2.28;;;14.00;99.90;;;;;;5072889;28;20028;-87
2023/05/20 04:41:03;;;;;;;4.32;2.42;;;14.00;99.90;;;;;;5074165;28;20039;-86
2023/05/20 04:43:29;;;;;;;4.28;2.30;;;14.10;99.90;;;;;;5072773;28;20031;-86
2023/05/20 04:46:04;;;;;;;4.65;2.72;;;14.00;99.90;;;;;;5073227;28;20060;-86
2023/05/20 04:48:31;;;;;;;4.80;2.65;;;14.10;99.90;;;;;;5073045;28;20059;-87
2023/05/20 04:50:56;;;;;;;5.60;2.78;;;14.10;99.90;;;;;;5073319;28;20082;-87
2023/05/20 04:53:22;;;;;;;5.43;2.83;;;14.10;99.90;;;;;;5072810;28;20040;-87
2023/05/20 04:55:48;;;;;;;6.95;2.65;;;14.00;99.90;;;;;;5073185;28;20068;-86
2023/05/20 04:58:16;;;;;;;4.22;2.60;;;14.10;99.90;;;;;;5072831;28;20031;-87
2023/05/20 05:00:42;;;;;;;5.07;2.58;;;14.10;99.90;;;;;;5073811;28;20040;-87
2023/05/20 05:03:08;;;;;;;5.07;2.85;;;14.10;99.90;;;;;;5073086;28;20033;-88
2023/05/20 05:05:38;;;;;;;5.13;2.75;;;14.10;99.90;;;;;;5072736;28;20095;-88
2023/05/20 05:08:05;;;;;;;4.97;2.63;;;14.10;99.90;;;;;;5074133;28;20028;-88
2023/05/20 05:10:32;;;;;;;5.50;2.28;;;14.20;99.90;;;;;;5073784;28;20078;-88
2023/05/20 05:12:57;;;;;;;7.15;2.67;;;14.20;99.90;;;;;;5073220;28;20032;-88
2023/05/20 05:15:24;;;;;;;3.30;2.10;;;14.30;99.90;;;;;;5072712;28;20040;-89
2023/05/20 05:17:50;;;;;;;5.10;2.58;;;14.40;99.90;;;;;;5073980;28;20150;-89
2023/05/20 05:20:15;;;;;;;6.25;2.45;;;14.40;99.90;;;;;;5060131;28;20025;-88
2023/05/20 05:22:41;;;;;;;4.47;2.35;;;14.40;99.90;;;;;;5053146;28;20033;-88
2023/05/20 05:25:08;;;;;;;2.97;2.05;;;14.40;99.90;;;;;;5053168;28;20025;-88
2023/05/20 05:27:34;;;;;;;4.85;2.33;;;14.40;99.90;;;;;;5052509;28;20455;-88
2023/05/20 05:30:01;;;;;;;4.00;2.20;;;14.50;99.90;;;;;;5052899;28;20033;-89
2023/05/20 05:32:26;;;;;;;4.88;2.38;;;14.50;99.90;;;;;;5052647;28;20036;-88
2023/05/20 05:34:52;;;;;;;6.45;2.20;;;14.60;99.90;;;;;;5057091;28;20029;-88
2023/05/20 05:37:18;;;;;;;4.03;2.20;;;14.60;99.90;;;;;;5056495;28;20458;-89
2023/05/20 05:39:44;;;;;;;5.20;2.35;;;14.60;99.90;;;;;;5056726;28;20067;-88
2023/05/20 05:42:09;;;;;;;3.42;2.38;;;14.60;99.90;;;;;;5056795;28;20082;-89
2023/05/20 05:44:35;;;;;;;4.75;2.45;;;14.50;99.90;;;;;;5056168;28;20035;-89
2023/05/20 05:47:01;;;;;;;4.70;2.38;;;14.60;99.90;;;;;;5056787;28;20036;-89
2023/05/20 05:49:26;;;;;;;3.63;2.20;;;14.60;99.90;;;;;;5056156;28;20025;-89
2023/05/20 05:51:52;;;;;;;2.80;2.20;;;14.60;99.90;;;;;;5056464;28;20051;-89
2023/05/20 05:54:19;;;;;;;3.42;2.20;;;14.70;99.90;;;;;;5058652;28;20029;-89
2023/05/20 05:56:44;;;;;;;4.65;2.38;;;14.60;99.90;;;;;;5068430;28;20024;-88
2023/05/20 05:59:10;;;;;;;5.25;2.13;;;14.70;99.90;;;;;;5064788;28;20090;-88
2023/05/20 06:01:36;;;;;;;7.40;2.55;;;14.70;99.90;;;;;;5057227;28;20063;-88
2023/05/20 06:04:01;;;;;;;4.07;2.40;;;14.70;99.90;;;;;;5075776;28;20389;-89
2023/05/20 06:06:30;;;;;;;4.40;2.13;;;14.70;99.90;;;;;;5092315;28;20048;-88
2023/05/20 06:08:56;;;;;;;5.95;2.50;;;14.80;99.90;;;;;;5079928;28;20020;-87
2023/05/20 06:11:22;;;;;;;3.78;2.88;;;14.80;99.90;;;;;;5087103;28;20031;-88
2023/05/20 06:13:48;;;;;;;6.43;2.60;;;14.80;99.90;;;;;;5077983;28;20051;-86
2023/05/20 06:16:14;;;;;;;4.18;2.70;;;14.90;99.90;;;;;;5058783;28;20033;-86
2023/05/20 06:18:40;;;;;;;7.15;2.47;;;15.00;99.90;;;;;;5056602;28;20389;-87
2023/05/20 06:21:05;;;;;;;8.13;2.67;;;15.00;99.90;;;;;;5074120;28;20056;-88
2023/05/20 06:23:31;;;;;;;5.47;2.20;;;15.10;99.90;;;;;;5074469;28;20051;-87
2023/05/20 06:25:58;;;;;;;6.30;2.85;;;15.10;99.90;;;;;;5073189;28;20036;-87
2023/05/20 06:28:23;;;;;;;3.95;2.20;;;15.20;99.90;;;;;;5075335;28;20035;-87
2023/05/20 06:30:49;;;;;;;3.55;2.38;;;15.30;99.90;;;;;;5070148;28;20108;-87
2023/05/20 06:33:16;;;;;;;4.63;2.45;;;15.30;99.90;;;;;;5075305;28;20034;-89
2023/05/20 06:35:42;;;;;;;4.15;2.60;;;15.40;99.90;;;;;;5060522;28;20466;-90
2023/05/20 06:38:07;;;;;;;3.78;2.45;;;15.50;99.90;;;;;;5055176;28;20074;-89
2023/05/20 06:40:33;;;;;;;3.35;2.50;;;15.50;99.90;;;;;;5055211;28;20024;-86
2023/05/20 06:42:59;;;;;;;3.88;2.47;;;15.50;99.90;;;;;;5068486;28;20536;-87
2023/05/20 06:45:24;;;;;;;6.97;2.70;;;15.50;99.90;;;;;;5072046;28;20101;-86
2023/05/20 06:47:52;;;;;;;4.40;2.38;;;15.50;99.90;;;;;;5070697;28;20496;-87
2023/05/20 06:50:17;;;;;;;5.40;2.38;;;15.60;99.90;;;;;;5074787;28;20021;-84
2023/05/20 06:52:43;;;;;;;5.38;2.50;;;15.60;99.90;;;;;;5067420;28;20048;-85
2023/05/20 06:55:09;;;;;;;3.85;2.15;;;15.70;99.90;;;;;;5072932;28;20043;-86
2023/05/20 06:57:34;;;;;;;5.03;2.80;;;15.70;99.90;;;;;;5065876;28;20101;-85
2023/05/20 07:00:00;;;;;;;4.82;2.80;;;15.80;99.90;;;;;;5085999;28;20130;-85
2023/05/20 07:02:26;;;;;;;4.95;2.92;;;15.90;99.90;;;;;;5066316;28;20021;-85
2023/05/20 07:04:51;;;;;;;4.90;2.63;;;15.90;99.90;;;;;;5078148;28;20024;-85
2023/05/20 07:07:17;;;;;;;7.82;3.28;;;16.00;99.90;;;;;;5083160;28;20550;-84
2023/05/20 07:09:42;;;;;;;5.85;3.00;;;16.00;99.90;;;;;;5068494;28;20023;-85
2023/05/20 07:12:08;;;;;;;6.30;2.65;;;16.00;99.90;;;;;;5085866;28;20086;-84
2023/05/20 07:14:33;;;;;;;4.25;2.67;;;16.00;99.90;;;;;;5068616;28;20029;-85
2023/05/20 07:17:11;;;;;;;4.13;2.55;;;16.00;99.90;;;;;;5079887;28;20020;-86
2023/05/20 07:19:37;;;;;;;5.85;2.65;;;15.90;99.90;;;;;;5074752;28;20016;-86
2023/05/20 07:22:02;;;;;;;5.15;2.55;;;15.90;99.90;;;;;;5074998;28;20048;-87
2023/05/20 07:24:28;;;;;;;3.03;2.30;;;15.80;99.90;;;;;;5070311;28;20029;-85
2023/05/20 07:26:54;;;;;;;4.95;3.00;;;15.80;99.90;;;;;;5060978;28;20060;-84
2023/05/20 07:29:19;;;;;;;4.32;3.17;;;15.80;99.90;;;;;;5068583;28;20061;-83
2023/05/20 07:31:45;;;;;;;4.68;2.88;;;15.80;99.90;;;;;;5052942;28;20180;-84
2023/05/20 07:34:10;;;;;;;4.10;2.88;;;15.80;99.90;;;;;;5077706;28;20032;-82
2023/05/20 07:36:37;;;;;;;4.18;2.67;;;15.80;99.90;;;;;;5071304;28;20028;-83
2023/05/20 07:39:03;;;;;;;3.95;2.80;;;15.80;99.90;;;;;;5055437;28;20041;-83
2023/05/20 07:41:29;;;;;;;5.50;3.10;;;15.80;99.90;;;;;;5068850;28;20086;-84
2023/05/20 07:43:54;;;;;;;4.28;2.78;;;15.90;99.90;;;;;;5077019;28;20028;-83
2023/05/20 07:46:20;;;;;;;5.93;3.00;;;15.80;99.90;;;;;;5080304;28;20040;-83
2023/05/20 07:48:46;;;;;;;3.45;2.80;;;15.90;99.90;;;;;;5075204;28;20086;-81
2023/05/20 07:51:11;;;;;;;6.20;3.15;;;15.90;99.90;;;;;;5073159;28;20449;-81
2023/05/20 07:53:37;;;;;;;4.93;3.58;;;16.00;99.90;;;;;;5046949;28;20453;-82
2023/05/20 07:56:03;;;;;;;3.55;3.00;;;16.10;99.90;;;;;;5058975;28;20535;-88
2023/05/20 07:58:30;;;;;;;7.65;2.83;;;16.10;99.90;;;;;;5072732;28;20411;-92
2023/05/20 08:00:56;;;;;;;5.93;3.35;;;16.20;99.90;;;;;;5062640;28;20057;-92
2023/05/20 08:03:22;;;;;;;6.30;2.88;;;16.30;99.90;;;;;;5062257;28;20522;-93
2023/05/20 08:05:47;;;;;;;8.18;3.13;;;16.40;99.90;;;;;;5060804;28;20096;-88
2023/05/20 08:08:13;;;;;;;5.30;3.20;;;16.40;99.90;;;;;;5056546;28;20421;-88
2023/05/20 08:10:38;;;;;;;5.43;3.20;;;16.40;99.90;;;;;;5073763;28;20100;-90
2023/05/20 08:13:04;;;;;;;8.75;3.70;;;16.50;99.90;;;;;;5073076;28;20051;-89
2023/05/20 08:15:30;;;;;;;6.75;3.13;;;16.60;99.90;;;;;;5074056;28;20024;-89
2023/05/20 08:17:56;;;;;;;6.45;3.47;;;16.70;99.90;;;;;;5067612;28;20444;-89
2023/05/20 08:20:21;;;;;;;8.52;3.35;;;16.80;99.90;;;;;;5072881;28;20098;-88
2023/05/20 08:22:47;;;;;;;4.85;3.28;;;16.90;99.90;;;;;;5072528;28;20020;-88
2023/05/20 08:25:13;;;;;;;7.57;3.25;;;17.10;99.90;;;;;;5073188;28;20119;-89
2023/05/20 08:27:40;;;;;;;5.13;2.97;;;17.20;99.90;;;;;;5073031;28;20036;-89
2023/05/20 08:30:08;;;;;;;4.78;3.17;;;17.30;99.90;;;;;;5059059;28;20128;-88
2023/05/20 08:32:34;;;;;;;3.75;3.17;;;17.30;99.90;;;;;;5070917;28;20068;-88
2023/05/20 08:35:01;;;;;;;5.45;3.17;;;17.40;99.90;;;;;;5073022;28;20107;-89
2023/05/20 08:37:27;;;;;;;5.85;3.08;;;17.50;99.90;;;;;;5064022;28;20025;-89
2023/05/20 08:39:53;;;;;;;5.75;3.08;;;17.70;99.90;;;;;;5053137;28;20370;-88
2023/05/20 08:42:23;;;;;;;5.50;3.20;;;17.70;99.90;;;;;;5085859;28;20032;-89
2023/05/20 08:44:52;;;;;;;4.68;3.58;;;17.80;99.90;;;;;;5068617;28;20017;-89
2023/05/20 08:47:21;;;;;;;4.97;3.30;;;17.90;99.90;;;;;;5077187;28;20032;-82
2023/05/20 08:49:50;;;;;;;4.93;3.38;;;18.10;99.90;;;;;;5067010;28;20046;-88
2023/05/20 08:52:20;;;;;;;6.30;3.78;;;18.10;99.90;;;;;;5084040;28;20349;-89
2023/05/20 08:54:48;;;;;;;6.03;3.60;;;18.00;99.90;;;;;;5054472;28;20433;-89
2023/05/20 08:57:14;;;;;;;5.20;3.22;;;18.10;99.90;;;;;;5064774;28;20105;-89
2023/05/20 08:59:45;;;;;;;7.10;3.50;;;18.10;99.90;;;;;;5063018;28;20028;-89
2023/05/20 09:02:11;;;;;;;6.88;3.15;;;18.00;99.90;;;;;;5057999;28;20489;-89
2023/05/20 09:04:37;;;;;;;4.35;3.40;;;18.00;99.90;;;;;;5069422;28;20477;-90
2023/05/20 09:07:03;;;;;;;5.97;3.40;;;18.10;99.90;;;;;;5053296;28;20091;-89
2023/05/20 09:09:31;;;;;;;3.88;3.08;;;18.20;99.90;;;;;;5061580;28;20020;-89
2023/05/20 09:11:58;;;;;;;6.28;3.30;;;18.30;99.90;;;;;;5058172;28;20029;-88
2023/05/20 09:14:26;;;;;;;6.68;3.50;;;18.40;99.90;;;;;;5068392;28;20027;-87
2023/05/20 09:16:51;;;;;;;5.82;4.03;;;18.40;99.90;;;;;;5053217;28;20048;-88
2023/05/20 09:19:19;;;;;;;8.57;3.50;;;18.30;99.90;;;;;;5060442;28;20518;-89
2023/05/20 09:21:46;;;;;;;6.93;3.50;;;18.50;99.90;;;;;;5061449;28;20366;-89
2023/05/20 09:24:12;;;;;;;5.45;3.58;;;18.60;99.90;;;;;;5053563;28;20505;-89
2023/05/20 09:26:38;;;;;;;4.65;3.25;;;18.80;99.90;;;;;;5069484;28;20082;-90
2023/05/20 09:29:04;;;;;;;8.18;3.42;;;18.90;99.90;;;;;;5058316;28;20460;-89
2023/05/20 09:31:33;;;;;;;4.13;3.20;;;18.90;99.90;;;;;;5064669;28;20491;-89
2023/05/20 09:34:02;;;;;;;5.35;3.13;;;19.10;99.90;;;;;;5058825;28;20021;-89
2023/05/20 09:36:29;;;;;;;7.95;3.28;;;19.40;99.90;;;;;;5068638;28;20028;-89
2023/05/20 09:39:03;;;;;;;3.90;3.10;;;19.50;99.90;;;;;;5052638;28;20032;-89
2023/05/20 09:41:48;;;;;;;5.03;3.10;;;19.60;99.90;;;;;;5053260;28;20060;-89
2023/05/20 09:44:15;;;;;;;5.18;3.58;;;19.60;99.90;;;;;;5069678;28;20031;-89
2023/05/20 09:46:41;;;;;;;6.63;3.55;;;19.50;99.90;;;;;;5056857;28;20184;-89
2023/05/20 09:49:08;;;;;;;5.82;3.78;;;19.40;99.90;;;;;;5068711;28;20017;-89
2023/05/20 09:51:34;;;;;;;7.88;3.47;;;19.40;99.90;;;;;;5063719;28;20029;-88
2023/05/20 09:54:02;;;;;;;4.15;3.30;;;19.40;99.90;;;;;;5059099;28;20032;-89
2023/05/20 09:56:28;;;;;;;8.40;3.95;;;19.50;99.90;;;;;;5069213;28;20078;-89
2023/05/20 09:58:57;;;;;;;5.63;3.50;;;19.50;99.90;;;;;;5057026;28;20028;-89
2023/05/20 10:01:24;;;;;;;3.55;2.90;;;19.60;99.90;;;;;;5064308;28;20032;-88
2023/05/20 10:03:51;;;;;;;6.25;3.10;;;19.70;99.90;;;;;;5059708;28;20099;-89
2023/05/20 10:06:53;;;;;;;6.63;3.22;;;19.60;99.90;;;;;;5069819;28;20067;-88
2023/05/20 10:09:43;;;;;;;5.78;3.40;;;19.60;99.90;;;;;;5061255;28;20048;-87
2023/05/20 10:12:21;;;;;;;3.72;3.10;;;19.60;99.90;;;;;;5057343;28;20032;-89
2023/05/20 10:14:52;;;;;;;4.97;3.45;;;19.60;99.90;;;;;;5056830;28;20047;-89
2023/05/20 10:17:24;;;;;;;5.40;3.45;;;19.60;99.90;;;;;;5064768;28;20029;-89
2023/05/20 10:19:57;;;;;;;4.68;3.38;;;19.70;99.90;;;;;;5065460;28;20484;-89
2023/05/20 10:22:36;;;;;;;4.82;3.42;;;19.70;99.90;;;;;;5064828;28;20020;-89
2023/05/20 10:25:06;;;;;;;4.10;3.28;;;19.80;99.90;;;;;;5059261;28;20088;-89
2023/05/20 10:27:43;;;;;;;4.38;3.10;;;19.80;99.90;;;;;;5055988;28;20024;-88
2023/05/20 10:30:15;;;;;;;3.78;3.25;;;20.00;99.90;;;;;;5071070;28;20489;-88
2023/05/20 10:32:50;;;;;;;5.45;3.53;;;20.10;99.90;;;;;;5075609;28;20040;-89
2023/05/20 10:35:26;;;;;;;4.60;2.90;;;20.30;99.90;;;;;;5075621;28;20066;-89
2023/05/20 10:38:13;;;;;;;6.55;3.67;;;20.20;99.90;;;;;;5076131;28;20103;-88
2023/05/20 10:40:39;;;;;;;5.90;3.30;;;20.30;99.90;;;;;;5033924;28;20036;-90
2023/05/20 10:43:12;;;;;;;4.53;3.10;;;20.50;99.90;;;;;;5018163;28;20104;-88
2023/05/20 10:45:58;;;;;;;6.38;3.40;;;20.50;99.90;;;;;;5034039;28;20482;-89
2023/05/20 10:48:24;;;;;;;4.20;2.80;;;20.50;99.90;;;;;;5017337;28;20049;-89
2023/05/20 10:50:54;;;;;;;4.70;3.25;;;20.60;99.90;;;;;;5016998;28;20033;-89
2023/05/20 10:53:22;;;;;;;6.47;3.50;;;20.70;99.90;;;;;;5023226;28;20549;-90
2023/05/20 10:55:53;;;;;;;6.22;3.40;;;20.70;99.90;;;;;;5017378;28;20029;-89
2023/05/20 10:58:20;;;;;;;4.65;3.50;;;20.80;99.90;;;;;;5017319;28;20042;-89
2023/05/20 11:00:47;;;;;;;4.50;3.40;;;20.90;99.90;;;;;;5016963;28;20053;-89
2023/05/20 11:03:15;;;;;;;4.15;3.28;;;20.90;99.90;;;;;;5022006;28;20112;-89
2023/05/20 11:05:41;;;;;;;5.22;3.47;;;20.90;99.90;;;;;;5013882;28;20038;-89
2023/05/20 11:08:08;;;;;;;3.80;3.10;;;21.10;99.90;;;;;;4997198;28;20106;-89
2023/05/20 11:10:35;;;;;;;3.50;2.85;;;21.20;99.90;;;;;;4996556;28;20538;-88
2023/05/20 11:13:02;;;;;;;5.47;3.03;;;21.30;99.90;;;;;;5003936;28;20041;-89
2023/05/20 11:15:29;;;;;;;4.90;2.95;;;21.40;99.90;;;;;;5013578;28;20026;-89
2023/05/20 11:17:56;;;;;;;4.85;3.42;;;21.50;99.90;;;;;;5036223;28;20072;-90
2023/05/20 11:20:23;;;;;;;3.28;2.97;;;21.70;99.90;;;;;;5054547;28;20021;-89
2023/05/20 11:22:55;;;;;;;7.72;3.13;;;21.60;99.60;;;;;;5054737;28;20029;-90
2023/05/20 11:25:24;;;;;;;4.50;3.30;;;21.60;99.00;;;;;;5067954;28;20094;-90
2023/05/20 11:27:50;;;;;;;4.63;3.10;;;21.50;99.40;;;;;;5084014;28;20033;-89
2023/05/20 11:30:17;;;;;;;4.78;3.13;;;21.40;99.90;;;;;;5083640;28;20024;-87
2023/05/20 11:32:59;;;;;;;4.55;3.25;;;21.40;99.90;;;;;;5077860;28;20388;-90
2023/05/20 11:35:28;;;;;;;4.22;3.47;;;21.40;99.90;;;;;;5080510;28;20028;-83
2023/05/20 11:38:06;;;;;;;3.35;2.90;;;21.50;99.90;;;;;;5079240;28;20028;-88
2023/05/20 11:40:32;;;;;;;3.45;2.80;;;21.50;99.90;;;;;;5079229;28;20099;-90
2023/05/20 11:43:00;;;;;;;3.33;2.83;;;21.50;98.20;;;;;;5079275;28;20036;-90
2023/05/20 11:45:29;;;;;;;3.92;3.22;;;21.40;98.20;;;;;;5078327;28;20449;-84
2023/05/20 11:48:02;;;;;;;5.07;3.28;;;21.50;97.80;;;;;;5080738;28;20076;-87
2023/05/20 11:50:34;;;;;;;3.95;3.13;;;21.40;97.60;;;;;;5069990;28;20071;-88
2023/05/20 11:53:02;;;;;;;3.47;2.92;;;21.50;97.80;;;;;;5063462;28;20044;-89
2023/05/20 11:55:27;;;;;;;5.40;4.10;;;21.60;97.80;;;;;;5096291;28;20125;-90
2023/05/20 11:57:54;;;;;;;3.95;2.90;;;21.70;98.60;;;;;;5073924;28;20028;-89
2023/05/20 12:00:20;;;;;;;3.30;2.70;;;21.70;98.50;;;;;;5053623;28;20048;-89
2023/05/20 12:02:46;;;;;;;5.28;3.20;;;21.70;98.00;;;;;;5058648;28;20032;-89
2023/05/20 12:05:12;;;;;;;5.43;3.15;;;21.60;97.20;;;;;;5073728;28;20024;-87
2023/05/20 12:07:38;;;;;;;4.28;3.15;;;21.50;97.50;;;;;;5072935;28;20035;-89
2023/05/20 12:10:04;;;;;;;3.78;3.25;;;21.60;97.50;;;;;;5074580;28;20454;-89
2023/05/20 12:12:30;;;;;;;4.00;3.40;;;21.70;97.60;;;;;;5087373;28;20032;-84
2023/05/20 12:14:55;;;;;;;4.15;3.40;;;21.70;98.40;;;;;;5053349;28;20025;-89
2023/05/20 12:17:21;;;;;;;4.40;2.95;;;21.80;98.70;;;;;;5053241;28;20025;-89
2023/05/20 12:19:47;;;;;;;5.47;3.47;;;22.00;98.20;;;;;;5053181;28;20575;-89
2023/05/20 12:22:12;;;;;;;5.43;3.58;;;21.90;97.70;;;;;;5053393;28;20029;-88
2023/05/20 12:24:38;;;;;;;4.13;2.90;;;21.90;96.70;;;;;;5067132;28;20071;-89
2023/05/20 12:27:05;;;;;;;6.93;3.40;;;21.70;96.20;;;;;;5054238;28;20080;-88
2023/05/20 12:29:31;;;;;;;5.53;3.17;;;21.80;96.70;;;;;;5070783;28;20163;-85
2023/05/20 12:31:56;;;;;;;6.22;3.75;;;22.10;97.00;;;;;;5072190;28;20052;-87
2023/05/20 12:34:22;;;;;;;7.45;3.45;;;22.30;96.60;;;;;;5072733;28;20036;-89
2023/05/20 12:36:48;;;;;;;5.63;3.42;;;22.40;96.00;;;;;;5072712;28;20025;-89
2023/05/20 12:39:16;;;;;;;7.60;3.75;;;22.70;95.40;;;;;;5058727;28;20029;-88
2023/05/20 12:41:42;;;;;;;6.30;4.05;;;22.70;96.30;;;;;;5052808;28;20032;-89
2023/05/20 12:44:08;;;;;;;3.40;3.10;;;22.80;95.90;;;;;;5052666;28;20044;-88
2023/05/20 12:46:35;;;;;;;3.63;3.15;;;22.90;95.20;;;;;;5053102;28;20056;-87